sensor_id;sensor_type;location;lat;lon;timestamp;pressure;altitude;pressure_sealevel;temperature;humidity
49122;BME280;35529;44.342;25.944;2023-06-14T00:00:52;100393.28;;;19.42;100.00
49122;BME280;35529;44.342;25.944;2023-06-14T00:03:22;100392.69;;;19.40;100.00
49122;BME280;35529;44.342;25.944;2023-06-14T00:05:50;100389.22;;;19.40;100.00
49122;BME280;35529;44.342;25.944;2023-06-14T00:08:16;100397.28;;;19.40;100.00
49122;BME280;35529;44.342;25.944;2023-06-14T00:10:44;100394.84;;;19.38;100.00
49122;BME280;35529;44.342;25.944;2023-06-14T00:13:11;100397.28;;;19.40;100.00
49122;BME280;35529;44.342;25.944;2023-06-14T00:15:37;100398.09;;;19.40;100.00
49122;BME280;35529;44.342;25.944;2023-06-14T00:18:04;100393.53;;;19.41;100.00
49122;BME280;35529;44.342;25.944;2023-06-14T00:20:31;100401.09;;;19.44;100.00
49122;BME280;35529;44.342;25.944;2023-06-14T00:22:58;100398.66;;;19.42;100.00
49122;BME280;35529;44.342;25.944;2023-06-14T00:25:25;100394.88;;;19.43;100.00
49122;BME280;35529;44.342;25.944;2023-06-14T00:27:51;100385.47;;;19.46;100.00
49122;BME280;35529;44.342;25.944;2023-06-14T00:30:18;100387.94;;;19.48;100.00
49122;BME280;35529;44.342;25.944;2023-06-14T00:32:44;100388.47;;;19.50;100.00
49122;BME280;35529;44.342;25.944;2023-06-14T00:35:10;100391.97;;;19.50;100.00
49122;BME280;35529;44.342;25.944;2023-06-14T00:37:37;100382.03;;;19.51;100.00
49122;BME280;35529;44.342;25.944;2023-06-14T00:40:03;100384.97;;;19.49;100.00
49122;BME280;35529;44.342;25.944;2023-06-14T00:42:30;100384.41;;;19.47;100.00
49122;BME280;35529;44.342;25.944;2023-06-14T00:44:57;100378.47;;;19.45;100.00
49122;BME280;35529;44.342;25.944;2023-06-14T00:47:23;100377.66;;;19.45;100.00
49122;BME280;35529;44.342;25.944;2023-06-14T00:49:49;100365.50;;;19.42;100.00
49122;BME280;35529;44.342;25.944;2023-06-14T00:52:17;100363.34;;;19.39;100.00
49122;BME280;35529;44.342;25.944;2023-06-14T00:54:43;100360.09;;;19.37;100.00
49122;BME280;35529;44.342;25.944;2023-06-14T00:57:10;100360.34;;;19.35;100.00
49122;BME280;35529;44.342;25.944;2023-06-14T00:59:38;100357.13;;;19.33;100.00
49122;BME280;35529;44.342;25.944;2023-06-14T01:02:07;100361.13;;;19.31;100.00
49122;BME280;35529;44.342;25.944;2023-06-14T01:04:33;100358.44;;;19.31;100.00
49122;BME280;35529;44.342;25.944;2023-06-14T01:07:02;100357.88;;;19.29;100.00
49122;BME280;35529;44.342;25.944;2023-06-14T01:09:44;100354.66;;;19.26;100.00
49122;BME280;35529;44.342;25.944;2023-06-14T01:12:15;100363.25;;;19.29;100.00
49122;BME280;35529;44.342;25.944;2023-06-14T01:14:46;100363.78;;;19.25;100.00
49122;BME280;35529;44.342;25.944;2023-06-14T01:17:13;100360.78;;;19.22;100.00
49122;BME280;35529;44.342;25.944;2023-06-14T01:19:42;100359.41;;;19.19;100.00
49122;BME280;35529;44.342;25.944;2023-06-14T01:22:12;100356.94;;;19.13;100.00
49122;BME280;35529;44.342;25.944;2023-06-14T01:24:38;100356.41;;;19.11;100.00
49122;BME280;35529;44.342;25.944;2023-06-14T01:27:05;100359.63;;;19.07;100.00
49122;BME280;35529;44.342;25.944;2023-06-14T01:29:31;100356.88;;;19.02;100.00
49122;BME280;35529;44.342;25.944;2023-06-14T01:32:01;100361.69;;;19.00;100.00
49122;BME280;35529;44.342;25.944;2023-06-14T01:34:27;100359.25;;;18.99;100.00
49122;BME280;35529;44.342;25.944;2023-06-14T01:36:53;100354.69;;;18.99;100.00
49122;BME280;35529;44.342;25.944;2023-06-14T01:39:23;100359.25;;;18.99;100.00
49122;BME280;35529;44.342;25.944;2023-06-14T01:41:49;100356.31;;;19.00;100.00
49122;BME280;35529;44.342;25.944;2023-06-14T01:44:16;100348.50;;;18.99;100.00
49122;BME280;35529;44.342;25.944;2023-06-14T01:46:43;100356.25;;;18.95;100.00
49122;BME280;35529;44.342;25.944;2023-06-14T01:49:11;100359.22;;;18.93;100.00
49122;BME280;35529;44.342;25.944;2023-06-14T01:51:37;100357.84;;;18.91;100.00
49122;BME280;35529;44.342;25.944;2023-06-14T01:54:03;100358.66;;;18.91;100.00
49122;BME280;35529;44.342;25.944;2023-06-14T01:56:29;100361.59;;;18.90;100.00
49122;BME280;35529;44.342;25.944;2023-06-14T01:58:55;100358.31;;;18.88;100.00
49122;BME280;35529;44.342;25.944;2023-06-14T02:01:21;100363.13;;;18.86;100.00
49122;BME280;35529;44.342;25.944;2023-06-14T02:03:47;100368.78;;;18.84;100.00
49122;BME280;35529;44.342;25.944;2023-06-14T02:06:15;100366.59;;;18.81;100.00
49122;BME280;35529;44.342;25.944;2023-06-14T02:08:41;100376.56;;;18.81;100.00
49122;BME280;35529;44.342;25.944;2023-06-14T02:11:08;100378.41;;;18.80;100.00
49122;BME280;35529;44.342;25.944;2023-06-14T02:13:34;100385.44;;;18.81;100.00
49122;BME280;35529;44.342;25.944;2023-06-14T02:16:00;100375.97;;;18.79;100.00
49122;BME280;35529;44.342;25.944;2023-06-14T02:18:27;100378.09;;;18.76;100.00
49122;BME280;35529;44.342;25.944;2023-06-14T02:20:53;100383.19;;;18.73;100.00
49122;BME280;35529;44.342;25.944;2023-06-14T02:23:19;100381.56;;;18.72;100.00
49122;BME280;35529;44.342;25.944;2023-06-14T02:25:45;100374.81;;;18.69;100.00
49122;BME280;35529;44.342;25.944;2023-06-14T02:28:11;100376.13;;;18.67;100.00
49122;BME280;35529;44.342;25.944;2023-06-14T02:30:38;100378.50;;;18.63;100.00
49122;BME280;35529;44.342;25.944;2023-06-14T02:33:04;100381.72;;;18.60;100.00
49122;BME280;35529;44.342;25.944;2023-06-14T02:35:30;100383.59;;;18.59;100.00
49122;BME280;35529;44.342;25.944;2023-06-14T02:37:56;100389.78;;;18.60;100.00
49122;BME280;35529;44.342;25.944;2023-06-14T02:40:23;100388.13;;;18.59;100.00
49122;BME280;35529;44.342;25.944;2023-06-14T02:42:49;100398.59;;;18.55;100.00
49122;BME280;35529;44.342;25.944;2023-06-14T02:45:15;100395.16;;;18.60;100.00
49122;BME280;35529;44.342;25.944;2023-06-14T02:47:41;100401.66;;;18.64;100.00
49122;BME280;35529;44.342;25.944;2023-06-14T02:50:07;100410.56;;;18.70;100.00
49122;BME280;35529;44.342;25.944;2023-06-14T02:52:34;100410.38;;;18.76;100.00
49122;BME280;35529;44.342;25.944;2023-06-14T02:55:00;100406.44;;;18.84;100.00
49122;BME280;35529;44.342;25.944;2023-06-14T02:57:26;100412.22;;;18.93;100.00
49122;BME280;35529;44.342;25.944;2023-06-14T02:59:52;100406.31;;;18.96;100.00
49122;BME280;35529;44.342;25.944;2023-06-14T03:02:18;100404.78;;;19.05;100.00
49122;BME280;35529;44.342;25.944;2023-06-14T03:04:44;100409.72;;;19.14;100.00
49122;BME280;35529;44.342;25.944;2023-06-14T03:07:12;100411.38;;;19.20;100.00
49122;BME280;35529;44.342;25.944;2023-06-14T03:09:39;100413.03;;;19.21;100.00
49122;BME280;35529;44.342;25.944;2023-06-14T03:12:06;100421.16;;;19.31;100.00
49122;BME280;35529;44.342;25.944;2023-06-14T03:14:35;100425.06;;;19.46;100.00
49122;BME280;35529;44.342;25.944;2023-06-14T03:17:04;100434.59;;;19.58;100.00
49122;BME280;35529;44.342;25.944;2023-06-14T03:19:30;100429.00;;;19.70;100.00
49122;BME280;35529;44.342;25.944;2023-06-14T03:21:57;100435.53;;;19.74;100.00
49122;BME280;35529;44.342;25.944;2023-06-14T03:24:24;100439.31;;;19.79;100.00
49122;BME280;35529;44.342;25.944;2023-06-14T03:26:50;100444.22;;;19.82;100.00
49122;BME280;35529;44.342;25.944;2023-06-14T03:29:16;100441.19;;;19.78;100.00
49122;BME280;35529;44.342;25.944;2023-06-14T03:31:55;100443.94;;;19.83;100.00
49122;BME280;35529;44.342;25.944;2023-06-14T03:34:22;100439.38;;;19.84;100.00
49122;BME280;35529;44.342;25.944;2023-06-14T03:36:48;100428.09;;;19.87;100.00
49122;BME280;35529;44.342;25.944;2023-06-14T03:39:15;100438.06;;;19.91;100.00
49122;BME280;35529;44.342;25.944;2023-06-14T03:41:41;100444.31;;;19.97;100.00
49122;BME280;35529;44.342;25.944;2023-06-14T03:44:07;100449.22;;;20.05;100.00
49122;BME280;35529;44.342;25.944;2023-06-14T03:46:33;100449.78;;;20.13;100.00
49122;BME280;35529;44.342;25.944;2023-06-14T03:48:59;100453.06;;;20.20;100.00
49122;BME280;35529;44.342;25.944;2023-06-14T03:51:25;100442.91;;;20.32;100.00
49122;BME280;35529;44.342;25.944;2023-06-14T03:53:52;100444.53;;;20.38;100.00
49122;BME280;35529;44.342;25.944;2023-06-14T03:56:18;100446.72;;;20.47;100.00
49122;BME280;35529;44.342;25.944;2023-06-14T03:58:44;100448.94;;;20.60;100.00
49122;BME280;35529;44.342;25.944;2023-06-14T04:01:10;100446.03;;;20.72;100.00
49122;BME280;35529;44.342;25.944;2023-06-14T04:03:38;100442.81;;;20.80;100.00
49122;BME280;35529;44.342;25.944;2023-06-14T04:06:04;100454.72;;;20.89;100.00
49122;BME280;35529;44.342;25.944;2023-06-14T04:08:30;100449.63;;;21.03;100.00
49122;BME280;35529;44.342;25.944;2023-06-14T04:10:56;100454.22;;;21.08;100.00
49122;BME280;35529;44.342;25.944;2023-06-14T04:13:22;100452.34;;;21.14;100.00
49122;BME280;35529;44.342;25.944;2023-06-14T04:15:48;100458.31;;;21.21;100.00
49122;BME280;35529;44.342;25.944;2023-06-14T04:18:15;100448.31;;;21.26;100.00
49122;BME280;35529;44.342;25.944;2023-06-14T04:20:41;100462.91;;;21.41;100.00
49122;BME280;35529;44.342;25.944;2023-06-14T04:23:13;100460.78;;;21.58;100.00
49122;BME280;35529;44.342;25.944;2023-06-14T04:25:40;100470.50;;;21.75;100.00
49122;BME280;35529;44.342;25.944;2023-06-14T04:28:06;100465.88;;;21.91;100.00
49122;BME280;35529;44.342;25.944;2023-06-14T04:30:35;100466.38;;;22.03;100.00
49122;BME280;35529;44.342;25.944;2023-06-14T04:33:04;100473.91;;;22.22;100.00
49122;BME280;35529;44.342;25.944;2023-06-14T04:35:31;100459.56;;;22.37;100.00
49122;BME280;35529;44.342;25.944;2023-06-14T04:38:02;100466.56;;;22.53;100.00
49122;BME280;35529;44.342;25.944;2023-06-14T04:40:30;100471.38;;;22.62;100.00
49122;BME280;35529;44.342;25.944;2023-06-14T04:42:57;100474.63;;;22.64;100.00
49122;BME280;35529;44.342;25.944;2023-06-14T04:45:23;100469.44;;;22.77;100.00
49122;BME280;35529;44.342;25.944;2023-06-14T04:47:49;100478.03;;;22.90;100.00
49122;BME280;35529;44.342;25.944;2023-06-14T04:50:17;100478.78;;;22.96;100.00
49122;BME280;35529;44.342;25.944;2023-06-14T04:52:43;100476.59;;;23.03;100.00
49122;BME280;35529;44.342;25.944;2023-06-14T04:55:10;100481.72;;;23.09;100.00
49122;BME280;35529;44.342;25.944;2023-06-14T04:57:36;100476.53;;;23.08;100.00
49122;BME280;35529;44.342;25.944;2023-06-14T05:00:04;100475.72;;;23.13;100.00
49122;BME280;35529;44.342;25.944;2023-06-14T05:02:31;100490.63;;;23.15;100.00
49122;BME280;35529;44.342;25.944;2023-06-14T05:04:57;100483.31;;;23.10;100.00
49122;BME280;35529;44.342;25.944;2023-06-14T05:07:24;100488.97;;;23.19;100.00
49122;BME280;35529;44.342;25.944;2023-06-14T05:09:51;100486.75;;;23.26;100.00
49122;BME280;35529;44.342;25.944;2023-06-14T05:12:17;100486.75;;;23.26;100.00
49122;BME280;35529;44.342;25.944;2023-06-14T05:14:46;100499.19;;;23.33;100.00
49122;BME280;35529;44.342;25.944;2023-06-14T05:17:12;100497.59;;;23.26;100.00
49122;BME280;35529;44.342;25.944;2023-06-14T05:19:39;100492.16;;;23.26;100.00
49122;BME280;35529;44.342;25.944;2023-06-14T05:22:05;100495.63;;;23.37;100.00
49122;BME280;35529;44.342;25.944;2023-06-14T05:24:31;100501.53;;;23.45;100.00
49122;BME280;35529;44.342;25.944;2023-06-14T05:26:58;100497.13;;;23.54;100.00
49122;BME280;35529;44.342;25.944;2023-06-14T05:29:24;100496.50;;;23.67;100.00
49122;BME280;35529;44.342;25.944;2023-06-14T05:31:50;100497.97;;;23.84;100.00
49122;BME280;35529;44.342;25.944;2023-06-14T05:34:16;100497.28;;;24.02;100.00
49122;BME280;35529;44.342;25.944;2023-06-14T05:36:43;100501.41;;;24.24;100.00
49122;BME280;35529;44.342;25.944;2023-06-14T05:39:09;100496.91;;;24.38;100.00
49122;BME280;35529;44.342;25.944;2023-06-14T05:41:36;100504.34;;;24.52;100.00
49122;BME280;35529;44.342;25.944;2023-06-14T05:44:02;100508.53;;;24.68;100.00
49122;BME280;35529;44.342;25.944;2023-06-14T05:46:28;100502.66;;;24.80;100.00
49122;BME280;35529;44.342;25.944;2023-06-14T05:48:54;100513.47;;;24.85;100.00
49122;BME280;35529;44.342;25.944;2023-06-14T05:51:21;100506.22;;;25.00;100.00
49122;BME280;35529;44.342;25.944;2023-06-14T05:53:47;100512.81;;;25.13;100.00
49122;BME280;35529;44.342;25.944;2023-06-14T05:56:14;100506.94;;;25.24;100.00
49122;BME280;35529;44.342;25.944;2023-06-14T05:58:40;100509.97;;;25.42;100.00
49122;BME280;35529;44.342;25.944;2023-06-14T06:01:06;100512.47;;;25.57;100.00
49122;BME280;35529;44.342;25.944;2023-06-14T06:03:33;100510.06;;;25.70;100.00
49122;BME280;35529;44.342;25.944;2023-06-14T06:05:59;100513.13;;;25.82;98.80
49122;BME280;35529;44.342;25.944;2023-06-14T06:08:26;100511.38;;;26.05;97.70
49122;BME280;35529;44.342;25.944;2023-06-14T06:10:52;100513.75;;;26.26;96.72
49122;BME280;35529;44.342;25.944;2023-06-14T06:13:19;100506.78;;;26.34;95.03
49122;BME280;35529;44.342;25.944;2023-06-14T06:15:45;100509.59;;;26.42;95.34
49122;BME280;35529;44.342;25.944;2023-06-14T06:18:11;100505.56;;;26.54;95.57
49122;BME280;35529;44.342;25.944;2023-06-14T06:20:38;100511.03;;;26.54;95.05
49122;BME280;35529;44.342;25.944;2023-06-14T06:23:04;100513.03;;;26.48;94.18
49122;BME280;35529;44.342;25.944;2023-06-14T06:25:30;100516.75;;;26.38;93.98
49122;BME280;35529;44.342;25.944;2023-06-14T06:27:57;100505.97;;;26.19;95.75
49122;BME280;35529;44.342;25.944;2023-06-14T06:30:23;100513.22;;;26.24;96.22
49122;BME280;35529;44.342;25.944;2023-06-14T06:32:50;100509.09;;;26.13;95.89
49122;BME280;35529;44.342;25.944;2023-06-14T06:35:16;100511.59;;;26.09;96.66
49122;BME280;35529;44.342;25.944;2023-06-14T06:37:42;100517.97;;;25.85;98.47
49122;BME280;35529;44.342;25.944;2023-06-14T06:40:09;100513.22;;;25.77;99.00
49122;BME280;35529;44.342;25.944;2023-06-14T06:42:36;100522.09;;;25.83;100.00
49122;BME280;35529;44.342;25.944;2023-06-14T06:45:02;100516.38;;;25.98;100.00
49122;BME280;35529;44.342;25.944;2023-06-14T06:47:28;100514.44;;;26.18;97.60
49122;BME280;35529;44.342;25.944;2023-06-14T06:49:54;100522.22;;;26.24;97.26
49122;BME280;35529;44.342;25.944;2023-06-14T06:52:20;100519.41;;;26.30;96.67
49122;BME280;35529;44.342;25.944;2023-06-14T06:54:47;100511.72;;;26.59;95.47
49122;BME280;35529;44.342;25.944;2023-06-14T06:57:13;100504.34;;;26.60;94.89
49122;BME280;35529;44.342;25.944;2023-06-14T06:59:39;100507.06;;;26.60;96.23
49122;BME280;35529;44.342;25.944;2023-06-14T07:02:05;100515.25;;;26.60;96.11
49122;BME280;35529;44.342;25.944;2023-06-14T07:04:32;100513.75;;;26.54;96.03
49122;BME280;35529;44.342;25.944;2023-06-14T07:06:58;100513.44;;;26.55;97.45
49122;BME280;35529;44.342;25.944;2023-06-14T07:09:24;100515.94;;;26.52;96.67
49122;BME280;35529;44.342;25.944;2023-06-14T07:11:50;100514.75;;;26.58;96.57
49122;BME280;35529;44.342;25.944;2023-06-14T07:14:16;100508.59;;;26.80;96.63
49122;BME280;35529;44.342;25.944;2023-06-14T07:16:42;100515.63;;;26.95;93.49
49122;BME280;35529;44.342;25.944;2023-06-14T07:19:08;100519.53;;;27.03;93.46
49122;BME280;35529;44.342;25.944;2023-06-14T07:21:36;100511.59;;;27.29;92.81
49122;BME280;35529;44.342;25.944;2023-06-14T07:24:05;100515.22;;;27.38;90.77
49122;BME280;35529;44.342;25.944;2023-06-14T07:26:32;100507.09;;;27.47;92.70
49122;BME280;35529;44.342;25.944;2023-06-14T07:28:58;100510.69;;;27.56;92.85
49122;BME280;35529;44.342;25.944;2023-06-14T07:31:24;100514.47;;;27.47;92.17
49122;BME280;35529;44.342;25.944;2023-06-14T07:33:50;100501.50;;;27.30;92.85
49122;BME280;35529;44.342;25.944;2023-06-14T07:36:16;100503.53;;;27.24;93.08
49122;BME280;35529;44.342;25.944;2023-06-14T07:38:43;100499.59;;;26.93;93.30
49122;BME280;35529;44.342;25.944;2023-06-14T07:41:09;100503.13;;;26.80;93.67
49122;BME280;35529;44.342;25.944;2023-06-14T07:43:35;100509.19;;;26.63;94.02
49122;BME280;35529;44.342;25.944;2023-06-14T07:46:02;100505.56;;;26.68;93.60
49122;BME280;35529;44.342;25.944;2023-06-14T07:48:28;100510.63;;;26.74;94.06
49122;BME280;35529;44.342;25.944;2023-06-14T07:50:54;100511.41;;;26.89;91.95
49122;BME280;35529;44.342;25.944;2023-06-14T07:53:21;100511.19;;;26.99;90.98
49122;BME280;35529;44.342;25.944;2023-06-14T07:55:47;100511.88;;;27.05;89.67
49122;BME280;35529;44.342;25.944;2023-06-14T07:58:14;100512.41;;;27.30;88.88
49122;BME280;35529;44.342;25.944;2023-06-14T08:00:41;100513.66;;;27.23;88.51
49122;BME280;35529;44.342;25.944;2023-06-14T08:03:07;100510.34;;;27.13;90.43
49122;BME280;35529;44.342;25.944;2023-06-14T08:05:33;100503.78;;;27.36;91.35
49122;BME280;35529;44.342;25.944;2023-06-14T08:08:00;100498.91;;;27.70;89.32
49122;BME280;35529;44.342;25.944;2023-06-14T08:10:26;100509.25;;;27.82;89.84
49122;BME280;35529;44.342;25.944;2023-06-14T08:12:52;100500.25;;;28.04;87.89
49122;BME280;35529;44.342;25.944;2023-06-14T08:15:18;100502.81;;;28.09;87.49
49122;BME280;35529;44.342;25.944;2023-06-14T08:17:44;100507.84;;;28.16;87.16
49122;BME280;35529;44.342;25.944;2023-06-14T08:20:11;100502.88;;;28.18;85.92
49122;BME280;35529;44.342;25.944;2023-06-14T08:22:38;100498.72;;;28.20;85.97
49122;BME280;35529;44.342;25.944;2023-06-14T08:25:05;100497.75;;;28.25;86.97
49122;BME280;35529;44.342;25.944;2023-06-14T08:27:32;100497.78;;;28.34;85.23
49122;BME280;35529;44.342;25.944;2023-06-14T08:29:58;100490.25;;;28.39;85.43
49122;BME280;35529;44.342;25.944;2023-06-14T08:32:24;100491.38;;;28.38;85.37
49122;BME280;35529;44.342;25.944;2023-06-14T08:34:50;100494.41;;;28.28;85.55
49122;BME280;35529;44.342;25.944;2023-06-14T08:37:17;100493.25;;;28.20;86.16
49122;BME280;35529;44.342;25.944;2023-06-14T08:39:43;100486.97;;;27.88;86.20
49122;BME280;35529;44.342;25.944;2023-06-14T08:42:09;100489.75;;;27.66;87.87
49122;BME280;35529;44.342;25.944;2023-06-14T08:44:36;100497.78;;;27.71;87.84
49122;BME280;35529;44.342;25.944;2023-06-14T08:47:02;100494.44;;;27.74;89.12
49122;BME280;35529;44.342;25.944;2023-06-14T08:49:31;100496.06;;;27.75;87.70
49122;BME280;35529;44.342;25.944;2023-06-14T08:51:59;100493.88;;;27.86;87.47
49122;BME280;35529;44.342;25.944;2023-06-14T08:54:29;100487.63;;;27.94;86.21
49122;BME280;35529;44.342;25.944;2023-06-14T08:57:02;100495.47;;;27.87;84.97
49122;BME280;35529;44.342;25.944;2023-06-14T08:59:30;100489.22;;;27.86;84.78
49122;BME280;35529;44.342;25.944;2023-06-14T09:01:59;100482.81;;;27.91;85.15
49122;BME280;35529;44.342;25.944;2023-06-14T09:04:26;100482.88;;;28.00;84.29
49122;BME280;35529;44.342;25.944;2023-06-14T09:06:55;100486.78;;;28.07;84.04
49122;BME280;35529;44.342;25.944;2023-06-14T09:09:21;100485.97;;;28.07;84.79
49122;BME280;35529;44.342;25.944;2023-06-14T09:11:52;100486.94;;;28.11;85.00
49122;BME280;35529;44.342;25.944;2023-06-14T09:14:18;100483.44;;;28.11;86.30
49122;BME280;35529;44.342;25.944;2023-06-14T09:16:44;100485.41;;;28.27;86.40
49122;BME280;35529;44.342;25.944;2023-06-14T09:19:14;100484.63;;;28.36;84.87
49122;BME280;35529;44.342;25.944;2023-06-14T09:21:47;100487.72;;;28.43;85.29
49122;BME280;35529;44.342;25.944;2023-06-14T09:24:13;100490.25;;;28.31;85.08
49122;BME280;35529;44.342;25.944;2023-06-14T09:26:40;100489.34;;;28.04;85.50
49122;BME280;35529;44.342;25.944;2023-06-14T09:29:06;100492.69;;;28.01;85.34
49122;BME280;35529;44.342;25.944;2023-06-14T09:31:32;100483.47;;;27.97;85.51
49122;BME280;35529;44.342;25.944;2023-06-14T09:33:59;100488.94;;;27.97;84.79
49122;BME280;35529;44.342;25.944;2023-06-14T09:36:28;100482.50;;;28.24;84.96
49122;BME280;35529;44.342;25.944;2023-06-14T09:38:58;100486.41;;;28.49;84.86
49122;BME280;35529;44.342;25.944;2023-06-14T09:41:31;100484.44;;;28.90;82.87
49122;BME280;35529;44.342;25.944;2023-06-14T09:43:58;100481.41;;;29.18;81.60
49122;BME280;35529;44.342;25.944;2023-06-14T09:46:26;100484.94;;;29.36;79.31
49122;BME280;35529;44.342;25.944;2023-06-14T09:48:53;100484.75;;;29.15;81.05
49122;BME280;35529;44.342;25.944;2023-06-14T09:51:19;100479.00;;;29.34;79.15
49122;BME280;35529;44.342;25.944;2023-06-14T09:53:48;100481.69;;;29.60;78.23
49122;BME280;35529;44.342;25.944;2023-06-14T09:56:37;100474.41;;;29.73;76.35
49122;BME280;35529;44.342;25.944;2023-06-14T09:59:01;100470.50;;;29.83;76.68
49122;BME280;35529;44.342;25.944;2023-06-14T10:01:30;100471.59;;;29.99;76.02
49122;BME280;35529;44.342;25.944;2023-06-14T10:04:06;100473.38;;;30.04;74.19
49122;BME280;35529;44.342;25.944;2023-06-14T10:06:36;100462.78;;;29.93;73.40
49122;BME280;35529;44.342;25.944;2023-06-14T10:09:03;100471.78;;;29.85;74.16
49122;BME280;35529;44.342;25.944;2023-06-14T10:11:29;100464.03;;;30.05;74.24
49122;BME280;35529;44.342;25.944;2023-06-14T10:13:56;100458.59;;;30.26;74.19
49122;BME280;35529;44.342;25.944;2023-06-14T10:16:24;100456.41;;;30.40;72.60
49122;BME280;35529;44.342;25.944;2023-06-14T10:21:41;100462.66;;;30.20;71.41
49122;BME280;35529;44.342;25.944;2023-06-14T10:24:10;100455.81;;;30.35;71.21
49122;BME280;35529;44.342;25.944;2023-06-14T10:26:49;100453.88;;;30.35;69.12
49122;BME280;35529;44.342;25.944;2023-06-14T10:29:16;100459.25;;;30.23;69.71
49122;BME280;35529;44.342;25.944;2023-06-14T10:31:46;100452.81;;;30.28;68.90
49122;BME280;35529;44.342;25.944;2023-06-14T10:34:12;100458.13;;;30.24;67.50
49122;BME280;35529;44.342;25.944;2023-06-14T10:36:46;100459.34;;;30.05;67.00
49122;BME280;35529;44.342;25.944;2023-06-14T10:39:25;100466.13;;;29.99;67.44
49122;BME280;35529;44.342;25.944;2023-06-14T10:41:52;100462.56;;;30.07;67.25
49122;BME280;35529;44.342;25.944;2023-06-14T10:46:54;100455.81;;;30.35;68.57
49122;BME280;35529;44.342;25.944;2023-06-14T10:49:23;100461.88;;;30.49;68.98
49122;BME280;35529;44.342;25.944;2023-06-14T10:52:02;100467.28;;;30.58;68.62
49122;BME280;35529;44.342;25.944;2023-06-14T10:54:28;100461.38;;;30.77;68.17
49122;BME280;35529;44.342;25.944;2023-06-14T10:56:54;100463.97;;;30.73;66.30
49122;BME280;35529;44.342;25.944;2023-06-14T10:59:21;100466.53;;;30.79;67.81
49122;BME280;35529;44.342;25.944;2023-06-14T11:01:53;100465.31;;;30.88;67.41
49122;BME280;35529;44.342;25.944;2023-06-14T11:04:23;100460.84;;;31.05;67.08
49122;BME280;35529;44.342;25.944;2023-06-14T11:06:53;100454.97;;;31.28;66.77
49122;BME280;35529;44.342;25.944;2023-06-14T11:12:02;100444.75;;;31.49;66.72
49122;BME280;35529;44.342;25.944;2023-06-14T11:14:29;100452.28;;;31.73;65.98
49122;BME280;35529;44.342;25.944;2023-06-14T11:16:56;100446.34;;;31.96;64.65
49122;BME280;35529;44.342;25.944;2023-06-14T11:19:22;100447.84;;;32.06;64.73
49122;BME280;35529;44.342;25.944;2023-06-14T11:21:48;100441.09;;;32.16;64.39
49122;BME280;35529;44.342;25.944;2023-06-14T11:24:16;100439.81;;;32.01;62.29
49122;BME280;35529;44.342;25.944;2023-06-14T11:26:42;100446.69;;;31.36;68.54
49122;BME280;35529;44.342;25.944;2023-06-14T11:29:09;100439.09;;;31.33;68.46
49122;BME280;35529;44.342;25.944;2023-06-14T11:31:35;100447.59;;;30.86;68.32
49122;BME280;35529;44.342;25.944;2023-06-14T11:34:01;100443.72;;;31.08;69.42
49122;BME280;35529;44.342;25.944;2023-06-14T11:36:28;100443.97;;;31.49;68.31
49122;BME280;35529;44.342;25.944;2023-06-14T11:39:00;100443.97;;;31.49;69.13
49122;BME280;35529;44.342;25.944;2023-06-14T11:41:31;100438.19;;;31.29;65.99
49122;BME280;35529;44.342;25.944;2023-06-14T11:43:59;100428.41;;;31.40;69.62
49122;BME280;35529;44.342;25.944;2023-06-14T11:46:25;100421.63;;;31.71;67.99
49122;BME280;35529;44.342;25.944;2023-06-14T11:48:51;100424.50;;;31.75;67.18
49122;BME280;35529;44.342;25.944;2023-06-14T11:51:18;100428.47;;;31.65;67.31
49122;BME280;35529;44.342;25.944;2023-06-14T11:53:44;100420.31;;;31.56;68.18
49122;BME280;35529;44.342;25.944;2023-06-14T11:56:11;100423.63;;;31.50;68.33
49122;BME280;35529;44.342;25.944;2023-06-14T11:58:37;100425.88;;;31.48;69.20
49122;BME280;35529;44.342;25.944;2023-06-14T12:01:03;100426.09;;;31.42;69.23
49122;BME280;35529;44.342;25.944;2023-06-14T12:03:29;100424.19;;;31.09;70.42
49122;BME280;35529;44.342;25.944;2023-06-14T12:06:02;100425.66;;;31.07;71.43
49122;BME280;35529;44.342;25.944;2023-06-14T12:08:35;100423.31;;;31.18;70.84
49122;BME280;35529;44.342;25.944;2023-06-14T12:11:06;100427.38;;;31.12;72.14
49122;BME280;35529;44.342;25.944;2023-06-14T12:13:32;100414.94;;;31.14;71.18
49122;BME280;35529;44.342;25.944;2023-06-14T12:15:58;100417.00;;;31.51;68.75
49122;BME280;35529;44.342;25.944;2023-06-14T12:18:34;100425.72;;;31.32;69.09
49122;BME280;35529;44.342;25.944;2023-06-14T12:21:02;100419.22;;;31.24;70.31
49122;BME280;35529;44.342;25.944;2023-06-14T12:23:47;100418.56;;;31.39;69.12
49122;BME280;35529;44.342;25.944;2023-06-14T12:26:17;100417.66;;;31.48;68.46
49122;BME280;35529;44.342;25.944;2023-06-14T12:28:44;100412.94;;;31.36;69.42
49122;BME280;35529;44.342;25.944;2023-06-14T12:31:11;100409.09;;;31.49;68.08
49122;BME280;35529;44.342;25.944;2023-06-14T12:33:39;100406.19;;;31.67;68.99
49122;BME280;35529;44.342;25.944;2023-06-14T12:36:06;100401.84;;;31.90;68.27
49122;BME280;35529;44.342;25.944;2023-06-14T12:38:33;100398.63;;;32.25;66.22
49122;BME280;35529;44.342;25.944;2023-06-14T12:41:00;100403.59;;;32.61;64.79
49122;BME280;35529;44.342;25.944;2023-06-14T12:43:26;100398.28;;;32.80;63.44